Maria Ignacia, Argentina
Current Conditions -  °F | °C
As of 1:00 AM on Saturday 20 Dec 2014 (Local Time) from SAZM Reporting Station
Scattered Clouds Scattered Clouds  
Wind Chill: 64°   Ceiling: Unl
Heat Index: 64°   Visibility: 6mi
Dew Point: 57°   Wind: 7mph
Humidity: 77%   Direction: 320°NW
Pressure: 29.53"   Gusts: NA
Location:  37.4°S, 59.5°W
Report Text: SAZM 200400Z 32006KT 9999 SCT015 FEW040CB18/14 Q1000
Loading
Personal Weather Stations






























Interactive Weather Map New forecast layout! Learn more

10-Day Weather Forecast

Advertisements
Track Severe Weather on mobile